Country
Station

 

Weather  for  Pusan/Kimhae International Airport  -  Korea (Republic of)    Korea (Republic of)

  
7 °C (45 °F)
    
 
 

Current METAR for Pusan/Kimhae International Airport is :

RKPK 210800Z 24006KT CAVOK 07/M07 Q1018

 

This is a report for Pusan/Kimhae International Airport - Korea (Republic of).
 
The report was made 33 minutes ago, at 08:00 UTC .
The wind was blowing at a speed of 3.1 meters per second (6.9 miles per hour) from west/southwest (240°).
 
The temperature was 7 °C (45 °F), with a dew-point at -7 °C (19 °F).
The atmospheric pressure was 1018 hPa (30.06 inHg).
The relative humidity was 36.1%.
 
There were no clouds below 1500 meter (5000 feet) and no cumulonimbus clouds.
 
The overall visibility was greater than 10 kilometers (6.2 miles).
 

 
 
 
 

Country :   A   B   C   D   E   F   G   H   I   J   K   L   M   N   O   P   Q   R   S   T   U   V   W   Y   Z

 

Site Info  |  Disclaimer  |  Credits  |  Privacy
Contact us  |  Add to favorites
© 2013-2019 METARs - All rights reserved